Terminal Aerodrome Forecast
Issued by NWS Louisville, KY

Home | Current Version | Previous Version | Text Only | Print | Product List | Glossary On
Versions: 1 2 3 4 5 6 7 8 9 10 11 12 13 14
000
FTUS43 KLMK 260853 AAB
TAFLEX
TAF AMD
KLEX 260853Z 2609/2706 20005KT 2SM TSRA BR BKN050CB
     FM261000 19005KT 6SM BR BKN060
     FM261400 19011KT P6SM BKN050
     FM262000 21013KT P6SM SCT050
     FM270300 16004KT P6SM SCT200=

USA.gov is the U.S. government's official web portal to all federal, state and local government web resources and services.